• Join FlightAware (Why Join?)
  • Login
  • US Flag 
01:11AM EDT


 

Airport Tracker/Info


-or-


 

Live Flight TrackerFlight Track Log ✈ N25HB ✈ 25-Jun-2013 ✈ KTEB - KCXY

Flight Track Log - Related Links

Times and Time Zones

All times are in EDT time to prevent confusion due to time zone crossing. See the N25HB flight status page for this flight to view local times or setup timezone preferences in your user account.

Time Position Orientation Groundspeed Altitude Reporting Facility
EDT Latitude Longitude Course Direction KTS MPH feet Rate Location/Type
05:36PM 40.8167 -74.1333 241° Southwest 121 139 2,400  Level New York TRACON
05:37PM 40.8167 -74.1667 270° West 113 130 3,900 780 Climbing New York TRACON
05:38PM 40.8167 -74.2167 270° West 172 198 4,000  Climbing New York TRACON
05:39PM 40.8167 -74.2833 270° West 190 219 4,000  Level New York TRACON
05:40PM 40.7833 -74.3500 237° Southwest 193 222 4,000  Level New York TRACON
05:41PM 40.6873 -74.4522 241° Southwest  Level FlightAware Approximate
05:41PM 40.7500 -74.4000 229° Southwest 190 219 4,000  Level New York TRACON
05:42PM 40.7167 -74.4667 237° Southwest 192 221 4,000  Level New York TRACON
05:44PM 40.6544 -74.5776 234° Southwest  Level FlightAware Approximate
05:51PM 40.5466 -75.0769 261° West  Level FlightAware Approximate
05:52PM 40.5372 -75.1524 261° West  Level FlightAware Approximate
05:53PM 40.5397 -75.2278 281° West  Level FlightAware Approximate
05:54PM 40.5501 -75.3030 273° West  Level FlightAware Approximate
05:55PM 40.5536 -75.3794 273° West  Level FlightAware Approximate
05:56PM 40.5569 -75.4558 273° West  Level FlightAware Approximate
05:57PM 40.5602 -75.5322 273° West  Level FlightAware Approximate
05:58PM 40.5635 -75.6087 273° West  Level FlightAware Approximate
05:59PM 40.5662 -75.6850 250° West  Level FlightAware Approximate
06:00PM 40.5463 -75.7569 250° West  Level FlightAware Approximate
06:01PM 40.5264 -75.8288 250° West  Level FlightAware Approximate
06:02PM 40.5064 -75.9006 250° West  Level FlightAware Approximate
06:03PM 40.4864 -75.9724 250° West  Level FlightAware Approximate
06:04PM 40.4743 -76.0471 259° West  Level FlightAware Approximate
06:05PM 40.4613 -76.1214 252° West  Level FlightAware Approximate
06:06PM 40.4412 -76.1931 246° West  Level FlightAware Approximate
06:07PM 40.4179 -76.2630 246° West  Level FlightAware Approximate
06:08PM 40.3956 -76.3335 251° West  Level FlightAware Approximate
06:09PM 40.3769 -76.4058 251° West  Level FlightAware Approximate
06:10PM 40.3588 -76.4728 250° West  Level FlightAware Approximate
06:11PM 40.3406 -76.5398 250° West  Level FlightAware Approximate
06:12PM 40.3224 -76.6067 250° West  Level FlightAware Approximate
06:13PM 40.3042 -76.6736 250° West  Level FlightAware Approximate
06:14PM 40.2859 -76.7404 250° West  Level FlightAware Approximate
06:15PM 40.2834 -76.8108 270° West  Level FlightAware Approximate
06:16PM 40.2833 -76.8818 270° West  Level FlightAware Approximate
06:17PM 40.2936 -76.9511 285° West  Level FlightAware Approximate
06:18PM 40.3000 -77.0210 270° West  Level FlightAware Approximate
06:19PM 40.2923 -77.0434 114° Southeast  Level FlightAware Approximate
06:20PM 40.2616 -76.9873 118° Southeast  Level FlightAware Approximate
06:21PM 40.2365 -76.9245 118° Southeast  Level FlightAware Approximate
06:22PM 40.2186 -76.8576 108° East  Level FlightAware Approximate
06:23PM 40.2167 -76.8500 108° East  Level FlightAware Approximate
06:24PM 40.2171 -76.8514 108° East  Level Estimated
06:25PM 40.2167 -76.8500 108° East  Level FlightAware Approximate
06:26PM 40.2171 -76.8514 108° East  Level Estimated
06:27PM 40.2167 -76.8500 108° East  Level FlightAware Approximate
06:28PM 40.2171 -76.8514 108° East  Level Estimated